ADDS METAR Data INFO
IDs: Format: Raw Decoded Include TAF

Data at: 0258 UTC 21 Jan 2018

KBDU 210254Z AUTO 05005KT 10SM OVC013 00/M01 A2982 RMK AO2
KBDU 210236Z AUTO 04005KT 10SM OVC013 00/M01 A2982 RMK AO2
KBDU 210212Z AUTO 05006KT 10SM OVC017 01/M01 A2982 RMK AO2
KBDU 210154Z AUTO 06005KT 10SM OVC021 01/M01 A2983 RMK AO2
KBDU 210136Z AUTO 06008KT 10SM OVC023 01/M02 A2983 RMK AO2
KBDU 210112Z AUTO 06007KT 10SM OVC025 02/M02 A2982 RMK AO2
KBDU 210055Z AUTO 07006KT 10SM OVC027 02/M02 A2982 RMK AO2
KBDU 210031Z AUTO 07007KT 10SM OVC033 03/M02 A2980 RMK AO2
KBDU 210013Z AUTO 06003KT 10SM OVC035 03/M02 A2980 RMK AO2
KBDU 201854Z AUTO 04005KT 10SM CLR 07/M05 A2979 RMK AO2
KBDU 201836Z AUTO 03007KT 10SM CLR 07/M05 A2980 RMK AO2
KBDU 201812Z AUTO 03009KT 10SM CLR 06/M05 A2981 RMK AO2
KBDU 201754Z AUTO 35005KT 10SM CLR 07/M06 A2982 RMK AO2
KBDU 201736Z AUTO 01009KT 10SM CLR 06/M06 A2983 RMK AO2
KBDU 201712Z AUTO 34005KT 10SM CLR 05/M06 A2982 RMK AO2
KBDU 201654Z AUTO 04011G16KT 10SM CLR 06/M06 A2982 RMK AO2
KBDU 201636Z AUTO 02010G15KT 10SM CLR 07/M06 A2978 RMK AO2
KBDU 201612Z AUTO 00000KT 10SM CLR 07/M07 A2976 RMK AO2
KBDU 201554Z AUTO 00000KT 10SM CLR 05/M07 A2975 RMK AO2
KBDU 201536Z AUTO 00000KT 10SM CLR 02/M06 A2975 RMK AO2
KBDU 201512Z AUTO 21003KT 10SM CLR 01/M07 A2976 RMK AO2
KBDU 201454Z AUTO 00000KT 10SM CLR 01/M07 A2976 RMK AO2
KBDU 201436Z AUTO 00000KT 10SM CLR 01/M07 A2976 RMK AO2
KBDU 201412Z AUTO 25003KT 10SM CLR 00/M06 A2975 RMK AO2
KBDU 201354Z AUTO 00000KT 10SM CLR 02/M07 A2975 RMK AO2
KBDU 201336Z AUTO 00000KT 10SM CLR 01/M07 A2975 RMK AO2
KBDU 201312Z AUTO 36003KT 10SM CLR 01/M07 A2974 RMK AO2
KBDU 201254Z AUTO 03003KT 10SM CLR 00/M08 A2974 RMK AO2
KBDU 201236Z AUTO 35004KT 10SM CLR 00/M08 A2973 RMK AO2
KBDU 201212Z AUTO 00000KT 10SM CLR 01/M08 A2973 RMK AO2
KBDU 201154Z AUTO 11003KT 10SM CLR 03/M08 A2973 RMK AO2
KBDU 201136Z AUTO 00000KT 10SM CLR 02/M08 A2973 RMK AO2
KBDU 201112Z AUTO 00000KT 10SM CLR 02/M08 A2973 RMK AO2
KBDU 201054Z AUTO 00000KT 10SM CLR 03/M08 A2973 RMK AO2
KBDU 201036Z AUTO 00000KT 10SM CLR 03/M09 A2974 RMK AO2
KBDU 201012Z AUTO 33005KT 10SM CLR 03/M09 A2974 RMK AO2
KBDU 200954Z AUTO 36004KT 10SM CLR 03/M09 A2974 RMK AO2
KBDU 200936Z AUTO 01003KT 10SM CLR 04/M10 A2974 RMK AO2
KBDU 200912Z AUTO 34003KT 10SM CLR 04/M10 A2973 RMK AO2
KBDU 200854Z AUTO 27004KT 10SM CLR 08/M10 A2973 RMK AO2
KBDU 200836Z AUTO 23004KT 10SM CLR 08/M10 A2973 RMK AO2
KBDU 200812Z AUTO 22005KT 10SM CLR 08/M10 A2972 RMK AO2
KBDU 200754Z AUTO 18003KT 10SM CLR 08/M10 A2972 RMK AO2
KBDU 200736Z AUTO 16003KT 10SM CLR 09/M10 A2973 RMK AO2
KBDU 200712Z AUTO 20003KT 10SM CLR 10/M10 A2973 RMK AO2
KBDU 200654Z AUTO 24005KT 10SM CLR 11/M10 A2973 RMK AO2
KBDU 200636Z AUTO 24007KT 10SM CLR 11/M10 A2972 RMK AO2
KBDU 200612Z AUTO 21004KT 10SM CLR 11/M10 A2974 RMK AO2
KBDU 200553Z AUTO 23004KT 10SM CLR 12/M10 A2974 RMK AO2
KBDU 200536Z AUTO 20005KT 10SM CLR 10/M10 A2974 RMK AO2
KBDU 200512Z AUTO 19003KT 10SM CLR 10/M10 A2974 RMK AO2
KBDU 200454Z AUTO 22007KT 10SM CLR 10/M10 A2974 RMK AO2
KBDU 200436Z AUTO 18004KT 10SM CLR 11/M10 A2974 RMK AO2
KBDU 200412Z AUTO 16004KT 10SM CLR 11/M10 A2974 RMK AO2
KBDU 200354Z AUTO 22006KT 10SM CLR 11/M10 A2974 RMK AO2
KBDU 200336Z AUTO 18004KT 10SM CLR 11/M10 A2974 RMK AO2
KBDU 200312Z AUTO 18004KT 10SM CLR 13/M10 A2973 RMK AO2
KBDU 200254Z AUTO 22010KT 10SM CLR 14/M10 A2973 RMK AO2
KBDU 200236Z AUTO 21008KT 10SM CLR 15/M10 A2972 RMK AO2
KBDU 200212Z AUTO 25009G14KT 10SM CLR 14/M10 A2972 RMK AO2
KBDU 200154Z AUTO 25010G15KT 10SM CLR 15/M10 A2972 RMK AO2
KBDU 200136Z AUTO 25011KT 10SM CLR 15/M10 A2972 RMK AO2
KBDU 200112Z AUTO 26013G19KT 10SM CLR 16/M10 A2972 RMK AO2
KBDU 200055Z AUTO 25014G24KT 10SM CLR 17/M10 A2972 RMK AO2
KBDU 200031Z AUTO 25017G21KT 10SM CLR 17/M10 A2972 RMK AO2
KBDU 200013Z AUTO 25015G24KT 10SM CLR 17/M10 A2971 RMK AO2
KBDU 192354Z AUTO 24013G24KT 10SM CLR 18/M09 A2971 RMK AO2
KBDU 192336Z AUTO 24018G30KT 10SM CLR 19/M09 A2971 RMK AO2
KBDU 192312Z AUTO 23015G25KT 10SM CLR 20/M09 A2971 RMK AO2
KBDU 192254Z AUTO 24013G24KT 10SM CLR 20/M08 A2970 RMK AO2
KBDU 192236Z AUTO 23016G27KT 10SM CLR 20/M09 A2970 RMK AO2
KBDU 192212Z AUTO 24011G23KT 10SM CLR 20/M08 A2970 RMK AO2
KBDU 192154Z AUTO 24006KT 10SM CLR 21/M08 A2969 RMK AO2
KBDU 192136Z AUTO 24009G15KT 162V272 10SM CLR 20/M08 A2969 RMK AO2
KBDU 192112Z AUTO 30009KT 10SM CLR 20/M07 A2969 RMK AO2
KBDU 192054Z AUTO 26009G14KT 10SM CLR 20/M07 A2970 RMK AO2
KBDU 192036Z AUTO 26014G18KT 10SM CLR 20/M08 A2970 RMK AO2
KBDU 192012Z AUTO 25012G28KT 10SM CLR 20/M08 A2971 RMK AO2
KBDU 191954Z AUTO 24015G29KT 10SM CLR 20/M08 A2972 RMK AO2
KBDU 191936Z AUTO 23013G24KT 10SM CLR 20/M08 A2972 RMK AO2
KBDU 191912Z AUTO 24015G24KT 10SM CLR 20/M08 A2974 RMK AO2
KBDU 191854Z AUTO 23014G21KT 10SM CLR 20/M08 A2974 RMK AO2
KBDU 191836Z AUTO 23017G29KT 10SM CLR 20/M07 A2974 RMK AO2
KBDU 191812Z AUTO 24012G22KT 10SM CLR 19/M07 A2976 RMK AO2
KBDU 191753Z AUTO 25016G21KT 10SM CLR 19/M07 A2977 RMK AO2
KBDU 191735Z AUTO 24014G23KT 10SM CLR 18/M08 A2978 RMK AO2
KBDU 191712Z AUTO 25014G21KT 10SM CLR 17/M08 A2979 RMK AO2
KBDU 191654Z AUTO 23016G24KT 10SM CLR 17/M08 A2979 RMK AO2
KBDU 191636Z AUTO 23016G24KT 10SM CLR 17/M08 A2978 RMK AO2
KBDU 191612Z AUTO 24018G26KT 10SM CLR 17/M09 A2979 RMK AO2
KBDU 191554Z AUTO 23016G22KT 10SM CLR 17/M09 A2978 RMK AO2
KBDU 191536Z AUTO 23015G24KT 10SM CLR 17/M09 A2979 RMK AO2
KBDU 191512Z AUTO 23017G23KT 10SM CLR 16/M10 A2978 RMK AO2